sensor_id;sensor_type;location;lat;lon;timestamp;temperature;humidity
5134;DHT22;2585;48.696;10.066;2024-03-02T00:00:51;5.30;95.80
5134;DHT22;2585;48.696;10.066;2024-03-02T00:03:19;5.40;95.80
5134;DHT22;2585;48.696;10.066;2024-03-02T00:05:50;5.40;95.80
5134;DHT22;2585;48.696;10.066;2024-03-02T00:08:23;5.40;95.80
5134;DHT22;2585;48.696;10.066;2024-03-02T00:10:52;5.40;95.80
5134;DHT22;2585;48.696;10.066;2024-03-02T00:13:23;5.40;95.80
5134;DHT22;2585;48.696;10.066;2024-03-02T00:15:54;5.40;95.80
5134;DHT22;2585;48.696;10.066;2024-03-02T00:18:31;5.40;95.80
5134;DHT22;2585;48.696;10.066;2024-03-02T00:20:59;5.40;95.80
5134;DHT22;2585;48.696;10.066;2024-03-02T00:23:30;5.40;95.80
5134;DHT22;2585;48.696;10.066;2024-03-02T00:25:58;5.40;95.80
5134;DHT22;2585;48.696;10.066;2024-03-02T00:28:29;5.40;95.80
5134;DHT22;2585;48.696;10.066;2024-03-02T00:33:36;5.30;95.80
5134;DHT22;2585;48.696;10.066;2024-03-02T00:36:04;5.40;95.80
5134;DHT22;2585;48.696;10.066;2024-03-02T00:38:31;5.40;95.80
5134;DHT22;2585;48.696;10.066;2024-03-02T00:41:00;5.40;95.80
5134;DHT22;2585;48.696;10.066;2024-03-02T00:44:00;5.40;95.80
5134;DHT22;2585;48.696;10.066;2024-03-02T00:49:03;5.40;95.80
5134;DHT22;2585;48.696;10.066;2024-03-02T00:51:32;5.40;95.80
5134;DHT22;2585;48.696;10.066;2024-03-02T00:54:01;5.40;95.80
5134;DHT22;2585;48.696;10.066;2024-03-02T00:56:31;5.40;95.80
5134;DHT22;2585;48.696;10.066;2024-03-02T00:58:58;5.40;95.80
5134;DHT22;2585;48.696;10.066;2024-03-02T01:01:25;5.40;95.80
5134;DHT22;2585;48.696;10.066;2024-03-02T01:03:53;5.40;95.80
5134;DHT22;2585;48.696;10.066;2024-03-02T01:06:20;5.30;95.80
5134;DHT22;2585;48.696;10.066;2024-03-02T01:08:47;5.40;95.80
5134;DHT22;2585;48.696;10.066;2024-03-02T01:11:18;5.40;95.80
5134;DHT22;2585;48.696;10.066;2024-03-02T01:13:45;5.40;95.80
5134;DHT22;2585;48.696;10.066;2024-03-02T01:16:13;5.30;95.80
5134;DHT22;2585;48.696;10.066;2024-03-02T01:18:40;5.30;95.80
5134;DHT22;2585;48.696;10.066;2024-03-02T01:21:07;5.30;95.80
5134;DHT22;2585;48.696;10.066;2024-03-02T01:23:34;5.40;95.80
5134;DHT22;2585;48.696;10.066;2024-03-02T01:26:01;5.30;95.80
5134;DHT22;2585;48.696;10.066;2024-03-02T01:28:27;5.40;95.80
5134;DHT22;2585;48.696;10.066;2024-03-02T01:30:54;5.30;95.80
5134;DHT22;2585;48.696;10.066;2024-03-02T01:33:21;5.30;95.80
5134;DHT22;2585;48.696;10.066;2024-03-02T01:35:48;5.30;95.80
5134;DHT22;2585;48.696;10.066;2024-03-02T01:38:15;5.30;95.80
5134;DHT22;2585;48.696;10.066;2024-03-02T01:40:42;5.30;95.80
5134;DHT22;2585;48.696;10.066;2024-03-02T01:43:11;5.30;95.80
5134;DHT22;2585;48.696;10.066;2024-03-02T01:45:38;5.30;95.80
5134;DHT22;2585;48.696;10.066;2024-03-02T01:48:06;5.30;95.80
5134;DHT22;2585;48.696;10.066;2024-03-02T01:50:34;5.30;95.80
5134;DHT22;2585;48.696;10.066;2024-03-02T01:53:02;5.30;95.80
5134;DHT22;2585;48.696;10.066;2024-03-02T01:55:31;5.30;95.80
5134;DHT22;2585;48.696;10.066;2024-03-02T01:58:00;5.30;95.80
5134;DHT22;2585;48.696;10.066;2024-03-02T02:00:27;5.30;95.80
5134;DHT22;2585;48.696;10.066;2024-03-02T02:02:54;5.20;95.80
5134;DHT22;2585;48.696;10.066;2024-03-02T02:05:22;5.20;95.80
5134;DHT22;2585;48.696;10.066;2024-03-02T02:07:49;5.20;95.80
5134;DHT22;2585;48.696;10.066;2024-03-02T02:10:16;5.20;95.80
5134;DHT22;2585;48.696;10.066;2024-03-02T02:12:43;5.10;95.70
5134;DHT22;2585;48.696;10.066;2024-03-02T02:15:23;5.10;95.70
5134;DHT22;2585;48.696;10.066;2024-03-02T02:17:50;5.10;95.70
5134;DHT22;2585;48.696;10.066;2024-03-02T02:20:18;5.10;95.70
5134;DHT22;2585;48.696;10.066;2024-03-02T02:23:02;5.10;95.70
5134;DHT22;2585;48.696;10.066;2024-03-02T02:25:29;5.10;95.70
5134;DHT22;2585;48.696;10.066;2024-03-02T02:27:57;5.00;95.70
5134;DHT22;2585;48.696;10.066;2024-03-02T02:30:27;5.00;95.70
5134;DHT22;2585;48.696;10.066;2024-03-02T02:32:54;5.00;95.70
5134;DHT22;2585;48.696;10.066;2024-03-02T02:35:22;4.90;95.70
5134;DHT22;2585;48.696;10.066;2024-03-02T02:37:50;4.90;95.70
5134;DHT22;2585;48.696;10.066;2024-03-02T02:40:18;4.90;95.70
5134;DHT22;2585;48.696;10.066;2024-03-02T02:42:48;4.90;95.70
5134;DHT22;2585;48.696;10.066;2024-03-02T02:45:15;4.90;95.70
5134;DHT22;2585;48.696;10.066;2024-03-02T02:47:43;4.80;95.70
5134;DHT22;2585;48.696;10.066;2024-03-02T02:50:11;4.80;95.70
5134;DHT22;2585;48.696;10.066;2024-03-02T02:52:41;4.90;95.70
5134;DHT22;2585;48.696;10.066;2024-03-02T02:55:10;4.80;95.70
5134;DHT22;2585;48.696;10.066;2024-03-02T02:57:39;4.80;95.70
5134;DHT22;2585;48.696;10.066;2024-03-02T03:00:08;4.80;95.70
5134;DHT22;2585;48.696;10.066;2024-03-02T03:02:43;4.80;95.70
5134;DHT22;2585;48.696;10.066;2024-03-02T03:05:11;4.80;95.70
5134;DHT22;2585;48.696;10.066;2024-03-02T03:07:42;4.70;95.60
5134;DHT22;2585;48.696;10.066;2024-03-02T03:10:11;4.70;95.60
5134;DHT22;2585;48.696;10.066;2024-03-02T03:12:38;4.70;95.60
5134;DHT22;2585;48.696;10.066;2024-03-02T03:15:08;4.60;95.60
5134;DHT22;2585;48.696;10.066;2024-03-02T03:17:35;4.60;95.60
5134;DHT22;2585;48.696;10.066;2024-03-02T03:20:04;4.60;95.60
5134;DHT22;2585;48.696;10.066;2024-03-02T03:22:32;4.60;95.60
5134;DHT22;2585;48.696;10.066;2024-03-02T03:24:59;4.60;95.60
5134;DHT22;2585;48.696;10.066;2024-03-02T03:27:26;4.60;95.60
5134;DHT22;2585;48.696;10.066;2024-03-02T03:29:53;4.60;95.60
5134;DHT22;2585;48.696;10.066;2024-03-02T03:32:21;4.50;95.60
5134;DHT22;2585;48.696;10.066;2024-03-02T03:34:48;4.50;95.60
5134;DHT22;2585;48.696;10.066;2024-03-02T03:37:15;4.50;95.60
5134;DHT22;2585;48.696;10.066;2024-03-02T03:39:42;4.50;95.60
5134;DHT22;2585;48.696;10.066;2024-03-02T03:42:09;4.50;95.60
5134;DHT22;2585;48.696;10.066;2024-03-02T03:44:36;4.40;95.60
5134;DHT22;2585;48.696;10.066;2024-03-02T03:47:02;4.40;95.60
5134;DHT22;2585;48.696;10.066;2024-03-02T03:49:29;4.40;95.60
5134;DHT22;2585;48.696;10.066;2024-03-02T03:51:56;4.30;95.50
5134;DHT22;2585;48.696;10.066;2024-03-02T03:54:23;4.30;95.50
5134;DHT22;2585;48.696;10.066;2024-03-02T03:56:50;4.30;95.50
5134;DHT22;2585;48.696;10.066;2024-03-02T03:59:17;4.30;95.50
5134;DHT22;2585;48.696;10.066;2024-03-02T04:01:43;4.30;95.50
5134;DHT22;2585;48.696;10.066;2024-03-02T04:04:10;4.30;95.50
5134;DHT22;2585;48.696;10.066;2024-03-02T04:06:37;4.30;95.50
5134;DHT22;2585;48.696;10.066;2024-03-02T04:09:04;4.30;95.50
5134;DHT22;2585;48.696;10.066;2024-03-02T04:11:31;4.30;95.50
5134;DHT22;2585;48.696;10.066;2024-03-02T04:13:58;4.20;95.50
5134;DHT22;2585;48.696;10.066;2024-03-02T04:16:25;4.20;95.50
5134;DHT22;2585;48.696;10.066;2024-03-02T04:18:51;4.20;95.50
5134;DHT22;2585;48.696;10.066;2024-03-02T04:21:19;4.20;95.50
5134;DHT22;2585;48.696;10.066;2024-03-02T04:23:46;4.20;95.50
5134;DHT22;2585;48.696;10.066;2024-03-02T04:26:13;4.20;95.50
5134;DHT22;2585;48.696;10.066;2024-03-02T04:28:39;4.20;95.50
5134;DHT22;2585;48.696;10.066;2024-03-02T04:31:06;4.20;95.50
5134;DHT22;2585;48.696;10.066;2024-03-02T04:33:33;4.30;95.50
5134;DHT22;2585;48.696;10.066;2024-03-02T04:36:00;4.30;95.50
5134;DHT22;2585;48.696;10.066;2024-03-02T04:38:26;4.30;95.50
5134;DHT22;2585;48.696;10.066;2024-03-02T04:40:54;4.30;95.60
5134;DHT22;2585;48.696;10.066;2024-03-02T04:43:20;4.30;95.60
5134;DHT22;2585;48.696;10.066;2024-03-02T04:45:47;4.40;95.60
5134;DHT22;2585;48.696;10.066;2024-03-02T04:48:14;4.40;95.60
5134;DHT22;2585;48.696;10.066;2024-03-02T04:50:41;4.40;95.60
5134;DHT22;2585;48.696;10.066;2024-03-02T04:53:08;4.40;95.60
5134;DHT22;2585;48.696;10.066;2024-03-02T04:55:35;4.40;95.60
5134;DHT22;2585;48.696;10.066;2024-03-02T04:58:02;4.50;95.60
5134;DHT22;2585;48.696;10.066;2024-03-02T05:00:28;4.50;95.60
5134;DHT22;2585;48.696;10.066;2024-03-02T05:02:55;4.50;95.60
5134;DHT22;2585;48.696;10.066;2024-03-02T05:05:22;4.50;95.60
5134;DHT22;2585;48.696;10.066;2024-03-02T05:07:49;4.50;95.60
5134;DHT22;2585;48.696;10.066;2024-03-02T05:10:16;4.50;95.60
5134;DHT22;2585;48.696;10.066;2024-03-02T05:12:43;4.50;95.60
5134;DHT22;2585;48.696;10.066;2024-03-02T05:15:13;4.50;95.60
5134;DHT22;2585;48.696;10.066;2024-03-02T05:17:41;4.50;95.60
5134;DHT22;2585;48.696;10.066;2024-03-02T05:20:11;4.50;95.60
5134;DHT22;2585;48.696;10.066;2024-03-02T05:22:38;4.50;95.60
5134;DHT22;2585;48.696;10.066;2024-03-02T05:25:07;4.50;95.60
5134;DHT22;2585;48.696;10.066;2024-03-02T05:27:34;4.50;95.60
5134;DHT22;2585;48.696;10.066;2024-03-02T05:30:01;4.50;95.60
5134;DHT22;2585;48.696;10.066;2024-03-02T05:32:28;4.50;95.60
5134;DHT22;2585;48.696;10.066;2024-03-02T05:34:55;4.50;95.60
5134;DHT22;2585;48.696;10.066;2024-03-02T05:37:22;4.50;95.60
5134;DHT22;2585;48.696;10.066;2024-03-02T05:39:49;4.50;95.60
5134;DHT22;2585;48.696;10.066;2024-03-02T05:42:16;4.50;95.60
5134;DHT22;2585;48.696;10.066;2024-03-02T05:44:46;4.50;95.60
5134;DHT22;2585;48.696;10.066;2024-03-02T05:47:13;4.50;95.60
5134;DHT22;2585;48.696;10.066;2024-03-02T05:49:40;4.50;95.60
5134;DHT22;2585;48.696;10.066;2024-03-02T05:52:06;4.50;95.60
5134;DHT22;2585;48.696;10.066;2024-03-02T05:54:33;4.50;95.60
5134;DHT22;2585;48.696;10.066;2024-03-02T05:57:00;4.50;95.60
5134;DHT22;2585;48.696;10.066;2024-03-02T05:59:44;4.50;95.60
5134;DHT22;2585;48.696;10.066;2024-03-02T06:02:10;4.40;95.60
5134;DHT22;2585;48.696;10.066;2024-03-02T06:04:37;4.40;95.60
5134;DHT22;2585;48.696;10.066;2024-03-02T06:07:04;4.40;95.60
5134;DHT22;2585;48.696;10.066;2024-03-02T06:09:31;4.40;95.60
5134;DHT22;2585;48.696;10.066;2024-03-02T06:11:58;4.50;95.60
5134;DHT22;2585;48.696;10.066;2024-03-02T06:14:25;4.40;95.60
5134;DHT22;2585;48.696;10.066;2024-03-02T06:16:51;4.40;95.60
5134;DHT22;2585;48.696;10.066;2024-03-02T06:19:18;4.40;95.60
5134;DHT22;2585;48.696;10.066;2024-03-02T06:21:45;4.40;95.60
5134;DHT22;2585;48.696;10.066;2024-03-02T06:24:12;4.50;95.60
5134;DHT22;2585;48.696;10.066;2024-03-02T06:26:39;4.50;95.60
5134;DHT22;2585;48.696;10.066;2024-03-02T06:29:06;4.50;95.60
5134;DHT22;2585;48.696;10.066;2024-03-02T06:31:34;4.60;95.60
5134;DHT22;2585;48.696;10.066;2024-03-02T06:34:01;4.60;95.60
5134;DHT22;2585;48.696;10.066;2024-03-02T06:36:30;4.60;95.60
5134;DHT22;2585;48.696;10.066;2024-03-02T06:38:57;4.60;95.60
5134;DHT22;2585;48.696;10.066;2024-03-02T06:41:24;4.60;95.60
5134;DHT22;2585;48.696;10.066;2024-03-02T06:43:50;4.70;95.70
5134;DHT22;2585;48.696;10.066;2024-03-02T06:46:21;4.70;95.70
5134;DHT22;2585;48.696;10.066;2024-03-02T06:48:47;4.70;95.70
5134;DHT22;2585;48.696;10.066;2024-03-02T06:51:14;4.60;95.60
5134;DHT22;2585;48.696;10.066;2024-03-02T06:53:42;4.60;95.60
5134;DHT22;2585;48.696;10.066;2024-03-02T06:56:09;4.60;95.60
5134;DHT22;2585;48.696;10.066;2024-03-02T06:58:36;4.60;95.60
5134;DHT22;2585;48.696;10.066;2024-03-02T07:01:03;4.60;95.60
5134;DHT22;2585;48.696;10.066;2024-03-02T07:03:30;4.60;95.60
5134;DHT22;2585;48.696;10.066;2024-03-02T07:05:56;4.60;95.60
5134;DHT22;2585;48.696;10.066;2024-03-02T07:08:23;4.60;95.60
5134;DHT22;2585;48.696;10.066;2024-03-02T07:10:50;4.70;95.70
5134;DHT22;2585;48.696;10.066;2024-03-02T07:13:17;4.80;95.70
5134;DHT22;2585;48.696;10.066;2024-03-02T07:15:44;4.80;95.70
5134;DHT22;2585;48.696;10.066;2024-03-02T07:18:26;4.80;95.70
5134;DHT22;2585;48.696;10.066;2024-03-02T07:20:53;4.70;95.70
5134;DHT22;2585;48.696;10.066;2024-03-02T07:23:20;4.80;95.70
5134;DHT22;2585;48.696;10.066;2024-03-02T07:25:49;4.90;95.70
5134;DHT22;2585;48.696;10.066;2024-03-02T07:28:19;4.90;95.70
5134;DHT22;2585;48.696;10.066;2024-03-02T07:30:46;4.90;95.70
5134;DHT22;2585;48.696;10.066;2024-03-02T07:33:13;4.90;95.70
5134;DHT22;2585;48.696;10.066;2024-03-02T07:35:39;5.00;95.70
5134;DHT22;2585;48.696;10.066;2024-03-02T07:38:07;5.10;95.80
5134;DHT22;2585;48.696;10.066;2024-03-02T07:40:33;5.20;95.80
5134;DHT22;2585;48.696;10.066;2024-03-02T07:43:00;5.30;95.80
5134;DHT22;2585;48.696;10.066;2024-03-02T07:45:27;5.20;95.80
5134;DHT22;2585;48.696;10.066;2024-03-02T07:47:54;5.20;95.80
5134;DHT22;2585;48.696;10.066;2024-03-02T07:50:21;5.20;95.80
5134;DHT22;2585;48.696;10.066;2024-03-02T07:52:48;5.30;95.80
5134;DHT22;2585;48.696;10.066;2024-03-02T07:55:15;5.50;95.90
5134;DHT22;2585;48.696;10.066;2024-03-02T07:57:41;5.50;95.90
5134;DHT22;2585;48.696;10.066;2024-03-02T08:00:09;5.60;95.90
5134;DHT22;2585;48.696;10.066;2024-03-02T08:02:36;5.70;95.90
5134;DHT22;2585;48.696;10.066;2024-03-02T08:05:04;5.70;95.90
5134;DHT22;2585;48.696;10.066;2024-03-02T08:07:30;5.70;95.90
5134;DHT22;2585;48.696;10.066;2024-03-02T08:09:57;5.80;95.90
5134;DHT22;2585;48.696;10.066;2024-03-02T08:12:24;5.90;95.90
5134;DHT22;2585;48.696;10.066;2024-03-02T08:14:51;6.00;96.00
5134;DHT22;2585;48.696;10.066;2024-03-02T08:17:18;6.00;96.00
5134;DHT22;2585;48.696;10.066;2024-03-02T08:19:44;6.10;96.00
5134;DHT22;2585;48.696;10.066;2024-03-02T08:22:11;6.10;96.00
5134;DHT22;2585;48.696;10.066;2024-03-02T08:24:38;6.10;96.00
5134;DHT22;2585;48.696;10.066;2024-03-02T08:27:05;6.10;96.00
5134;DHT22;2585;48.696;10.066;2024-03-02T08:29:32;6.10;96.00
5134;DHT22;2585;48.696;10.066;2024-03-02T08:31:59;6.20;91.30
5134;DHT22;2585;48.696;10.066;2024-03-02T08:34:26;6.30;91.40
5134;DHT22;2585;48.696;10.066;2024-03-02T08:36:53;6.40;91.40
5134;DHT22;2585;48.696;10.066;2024-03-02T08:39:20;6.30;91.40
5134;DHT22;2585;48.696;10.066;2024-03-02T08:41:47;6.40;91.40
5134;DHT22;2585;48.696;10.066;2024-03-02T08:44:15;6.50;91.40
5134;DHT22;2585;48.696;10.066;2024-03-02T08:46:42;6.40;91.40
5134;DHT22;2585;48.696;10.066;2024-03-02T08:49:10;6.40;91.40
5134;DHT22;2585;48.696;10.066;2024-03-02T08:51:37;6.50;91.40
5134;DHT22;2585;48.696;10.066;2024-03-02T08:54:04;6.60;91.40
5134;DHT22;2585;48.696;10.066;2024-03-02T08:56:31;6.70;91.50
5134;DHT22;2585;48.696;10.066;2024-03-02T08:58:58;6.60;91.40
5134;DHT22;2585;48.696;10.066;2024-03-02T09:01:25;6.60;91.40
5134;DHT22;2585;48.696;10.066;2024-03-02T09:03:52;6.70;91.40
5134;DHT22;2585;48.696;10.066;2024-03-02T09:06:20;6.90;91.50
5134;DHT22;2585;48.696;10.066;2024-03-02T09:08:48;6.90;91.50
5134;DHT22;2585;48.696;10.066;2024-03-02T09:11:16;7.20;91.60
5134;DHT22;2585;48.696;10.066;2024-03-02T09:13:43;7.30;91.60
5134;DHT22;2585;48.696;10.066;2024-03-02T09:16:10;7.30;91.60
5134;DHT22;2585;48.696;10.066;2024-03-02T09:18:38;7.40;91.60
5134;DHT22;2585;48.696;10.066;2024-03-02T09:21:05;7.90;91.70
5134;DHT22;2585;48.696;10.066;2024-03-02T09:23:32;8.10;91.80
5134;DHT22;2585;48.696;10.066;2024-03-02T09:25:59;8.60;91.90
5134;DHT22;2585;48.696;10.066;2024-03-02T09:28:26;8.60;91.90
5134;DHT22;2585;48.696;10.066;2024-03-02T09:30:53;9.10;92.00
5134;DHT22;2585;48.696;10.066;2024-03-02T09:33:23;9.50;92.10
5134;DHT22;2585;48.696;10.066;2024-03-02T09:35:50;9.30;92.00
5134;DHT22;2585;48.696;10.066;2024-03-02T09:38:19;9.30;92.00
5134;DHT22;2585;48.696;10.066;2024-03-02T09:40:46;9.50;92.10
5134;DHT22;2585;48.696;10.066;2024-03-02T09:43:13;9.50;92.10
5134;DHT22;2585;48.696;10.066;2024-03-02T09:45:40;9.50;92.10
5134;DHT22;2585;48.696;10.066;2024-03-02T09:48:07;9.30;92.00
5134;DHT22;2585;48.696;10.066;2024-03-02T09:50:34;10.00;91.90
5134;DHT22;2585;48.696;10.066;2024-03-02T09:53:01;9.80;92.10
5134;DHT22;2585;48.696;10.066;2024-03-02T09:55:28;9.40;92.00
5134;DHT22;2585;48.696;10.066;2024-03-02T09:57:55;9.00;91.90
5134;DHT22;2585;48.696;10.066;2024-03-02T10:00:22;9.20;92.00
5134;DHT22;2585;48.696;10.066;2024-03-02T10:02:49;9.00;91.90
5134;DHT22;2585;48.696;10.066;2024-03-02T10:05:25;9.40;92.00
5134;DHT22;2585;48.696;10.066;2024-03-02T10:08:02;9.20;92.00
5134;DHT22;2585;48.696;10.066;2024-03-02T10:10:36;9.10;91.90
5134;DHT22;2585;48.696;10.066;2024-03-02T10:13:07;9.70;92.10
5134;DHT22;2585;48.696;10.066;2024-03-02T10:15:35;10.00;91.90
5134;DHT22;2585;48.696;10.066;2024-03-02T10:18:04;10.30;91.90
5134;DHT22;2585;48.696;10.066;2024-03-02T10:20:31;10.50;91.90
5134;DHT22;2585;48.696;10.066;2024-03-02T10:23:13;10.90;92.00
5134;DHT22;2585;48.696;10.066;2024-03-02T10:25:41;11.30;92.10
5134;DHT22;2585;48.696;10.066;2024-03-02T10:28:23;10.80;92.00
5134;DHT22;2585;48.696;10.066;2024-03-02T10:30:51;10.80;92.00
5134;DHT22;2585;48.696;10.066;2024-03-02T10:33:20;11.00;92.00
5134;DHT22;2585;48.696;10.066;2024-03-02T10:35:49;11.00;92.00
5134;DHT22;2585;48.696;10.066;2024-03-02T10:38:17;11.50;92.10
5134;DHT22;2585;48.696;10.066;2024-03-02T10:40:47;11.30;92.00
5134;DHT22;2585;48.696;10.066;2024-03-02T10:43:14;11.50;92.00
5134;DHT22;2585;48.696;10.066;2024-03-02T10:45:42;12.20;92.20
5134;DHT22;2585;48.696;10.066;2024-03-02T10:48:09;12.60;92.30
5134;DHT22;2585;48.696;10.066;2024-03-02T10:50:36;12.80;92.30
5134;DHT22;2585;48.696;10.066;2024-03-02T10:53:03;12.80;92.30
5134;DHT22;2585;48.696;10.066;2024-03-02T10:55:32;11.80;91.90
5134;DHT22;2585;48.696;10.066;2024-03-02T10:58:00;11.90;91.80
5134;DHT22;2585;48.696;10.066;2024-03-02T11:00:33;11.50;91.60
5134;DHT22;2585;48.696;10.066;2024-03-02T11:03:07;11.60;91.60
5134;DHT22;2585;48.696;10.066;2024-03-02T11:05:41;11.60;91.40
5134;DHT22;2585;48.696;10.066;2024-03-02T11:08:14;11.40;91.30
5134;DHT22;2585;48.696;10.066;2024-03-02T11:10:52;11.60;91.30
5134;DHT22;2585;48.696;10.066;2024-03-02T11:13:47;11.50;91.00
5134;DHT22;2585;48.696;10.066;2024-03-02T11:16:32;11.70;90.90
5134;DHT22;2585;48.696;10.066;2024-03-02T11:19:10;11.60;90.30
5134;DHT22;2585;48.696;10.066;2024-03-02T11:21:40;11.70;90.20
5134;DHT22;2585;48.696;10.066;2024-03-02T11:26:54;11.50;88.40
5134;DHT22;2585;48.696;10.066;2024-03-02T11:32:03;13.00;89.70
5134;DHT22;2585;48.696;10.066;2024-03-02T11:34:35;13.80;89.50
5134;DHT22;2585;48.696;10.066;2024-03-02T11:37:03;14.20;87.90
5134;DHT22;2585;48.696;10.066;2024-03-02T11:39:31;14.40;86.20
5134;DHT22;2585;48.696;10.066;2024-03-02T11:41:58;14.70;84.20
5134;DHT22;2585;48.696;10.066;2024-03-02T11:44:28;14.70;79.40
5134;DHT22;2585;48.696;10.066;2024-03-02T11:49:45;14.70;70.10
5134;DHT22;2585;48.696;10.066;2024-03-02T11:52:13;14.60;40.40
5134;DHT22;2585;48.696;10.066;2024-03-02T11:54:43;14.60;9.80
5134;DHT22;2585;48.696;10.066;2024-03-02T11:57:15;14.10;1.00
5134;DHT22;2585;48.696;10.066;2024-03-02T11:59:43;14.10;1.00
5134;DHT22;2585;48.696;10.066;2024-03-02T12:02:19;14.10;90.30
5134;DHT22;2585;48.696;10.066;2024-03-02T12:04:47;14.70;87.80
5134;DHT22;2585;48.696;10.066;2024-03-02T12:07:22;14.80;63.70
5134;DHT22;2585;48.696;10.066;2024-03-02T12:10:00;15.20;1.00
5134;DHT22;2585;48.696;10.066;2024-03-02T12:12:29;15.20;1.00
5134;DHT22;2585;48.696;10.066;2024-03-02T12:14:56;15.60;1.00
5134;DHT22;2585;48.696;10.066;2024-03-02T12:17:22;15.80;73.10
5134;DHT22;2585;48.696;10.066;2024-03-02T12:19:49;15.80;1.00
5134;DHT22;2585;48.696;10.066;2024-03-02T12:22:16;15.60;93.50
5134;DHT22;2585;48.696;10.066;2024-03-02T12:24:44;15.70;81.60
5134;DHT22;2585;48.696;10.066;2024-03-02T12:27:13;16.20;72.00
5134;DHT22;2585;48.696;10.066;2024-03-02T12:29:41;16.30;20.90
5134;DHT22;2585;48.696;10.066;2024-03-02T12:32:08;16.40;1.00
5134;DHT22;2585;48.696;10.066;2024-03-02T12:34:35;16.40;92.40
5134;DHT22;2585;48.696;10.066;2024-03-02T12:37:04;16.30;71.90
5134;DHT22;2585;48.696;10.066;2024-03-02T12:39:31;16.30;34.80
5134;DHT22;2585;48.696;10.066;2024-03-02T12:41:59;16.30;1.00
5134;DHT22;2585;48.696;10.066;2024-03-02T12:44:26;16.10;1.00
5134;DHT22;2585;48.696;10.066;2024-03-02T12:46:53;15.60;93.10
5134;DHT22;2585;48.696;10.066;2024-03-02T12:49:24;15.70;92.30
5134;DHT22;2585;48.696;10.066;2024-03-02T12:51:51;15.80;83.90
5134;DHT22;2585;48.696;10.066;2024-03-02T12:54:22;15.40;63.60
5134;DHT22;2585;48.696;10.066;2024-03-02T12:56:49;16.10;1.00
5134;DHT22;2585;48.696;10.066;2024-03-02T12:59:18;16.00;34.30
5134;DHT22;2585;48.696;10.066;2024-03-02T13:01:55;15.60;4.50
5134;DHT22;2585;48.696;10.066;2024-03-02T13:04:27;15.40;1.00
5134;DHT22;2585;48.696;10.066;2024-03-02T13:06:57;15.30;1.00
5134;DHT22;2585;48.696;10.066;2024-03-02T13:09:25;15.40;1.00
5134;DHT22;2585;48.696;10.066;2024-03-02T13:11:52;15.40;1.00
5134;DHT22;2585;48.696;10.066;2024-03-02T13:14:22;15.70;1.00
5134;DHT22;2585;48.696;10.066;2024-03-02T13:16:51;15.00;92.00
5134;DHT22;2585;48.696;10.066;2024-03-02T13:19:19;14.50;82.40
5134;DHT22;2585;48.696;10.066;2024-03-02T13:21:46;13.70;69.80
5134;DHT22;2585;48.696;10.066;2024-03-02T13:24:13;14.10;74.60
5134;DHT22;2585;48.696;10.066;2024-03-02T13:26:40;14.20;67.70
5134;DHT22;2585;48.696;10.066;2024-03-02T13:29:07;14.30;68.90
5134;DHT22;2585;48.696;10.066;2024-03-02T13:31:34;14.50;60.50
5134;DHT22;2585;48.696;10.066;2024-03-02T13:34:01;14.90;59.90
5134;DHT22;2585;48.696;10.066;2024-03-02T13:36:28;14.90;19.10
5134;DHT22;2585;48.696;10.066;2024-03-02T13:38:55;14.50;4.40
5134;DHT22;2585;48.696;10.066;2024-03-02T13:41:21;14.50;1.00
5134;DHT22;2585;48.696;10.066;2024-03-02T13:43:48;14.60;1.00
5134;DHT22;2585;48.696;10.066;2024-03-02T13:46:17;14.90;1.00
5134;DHT22;2585;48.696;10.066;2024-03-02T13:48:44;14.90;1.00
5134;DHT22;2585;48.696;10.066;2024-03-02T13:51:11;15.20;1.00
5134;DHT22;2585;48.696;10.066;2024-03-02T13:53:38;15.30;1.00
5134;DHT22;2585;48.696;10.066;2024-03-02T13:56:05;15.00;1.00
5134;DHT22;2585;48.696;10.066;2024-03-02T13:58:32;15.40;1.00
5134;DHT22;2585;48.696;10.066;2024-03-02T14:00:59;15.80;1.00
5134;DHT22;2585;48.696;10.066;2024-03-02T14:03:26;15.10;89.20
5134;DHT22;2585;48.696;10.066;2024-03-02T14:05:56;15.10;85.70
5134;DHT22;2585;48.696;10.066;2024-03-02T14:08:24;14.70;78.20
5134;DHT22;2585;48.696;10.066;2024-03-02T14:10:51;14.50;76.90
5134;DHT22;2585;48.696;10.066;2024-03-02T14:13:17;14.20;74.60
5134;DHT22;2585;48.696;10.066;2024-03-02T14:15:45;14.40;77.50
5134;DHT22;2585;48.696;10.066;2024-03-02T14:18:12;14.50;73.50
5134;DHT22;2585;48.696;10.066;2024-03-02T14:20:39;14.60;75.50
5134;DHT22;2585;48.696;10.066;2024-03-02T14:23:08;14.80;70.40
5134;DHT22;2585;48.696;10.066;2024-03-02T14:25:37;14.70;65.10
5134;DHT22;2585;48.696;10.066;2024-03-02T14:28:04;14.70;60.80
5134;DHT22;2585;48.696;10.066;2024-03-02T14:30:34;14.10;48.60
5134;DHT22;2585;48.696;10.066;2024-03-02T14:33:01;14.20;48.20
5134;DHT22;2585;48.696;10.066;2024-03-02T14:35:27;14.30;40.00
5134;DHT22;2585;48.696;10.066;2024-03-02T14:37:55;14.60;37.50
5134;DHT22;2585;48.696;10.066;2024-03-02T14:40:24;14.00;20.80
5134;DHT22;2585;48.696;10.066;2024-03-02T14:42:53;14.00;29.90
5134;DHT22;2585;48.696;10.066;2024-03-02T14:45:20;13.60;16.40
5134;DHT22;2585;48.696;10.066;2024-03-02T14:47:47;13.60;8.40
5134;DHT22;2585;48.696;10.066;2024-03-02T14:50:14;13.40;8.50
5134;DHT22;2585;48.696;10.066;2024-03-02T14:52:44;13.40;19.90
5134;DHT22;2585;48.696;10.066;2024-03-02T14:55:12;13.50;39.00
5134;DHT22;2585;48.696;10.066;2024-03-02T14:57:39;13.40;26.40
5134;DHT22;2585;48.696;10.066;2024-03-02T15:00:06;13.40;22.40
5134;DHT22;2585;48.696;10.066;2024-03-02T15:02:34;13.30;34.40
5134;DHT22;2585;48.696;10.066;2024-03-02T15:05:01;13.10;17.50
5134;DHT22;2585;48.696;10.066;2024-03-02T15:07:29;13.00;20.80
5134;DHT22;2585;48.696;10.066;2024-03-02T15:09:56;13.00;44.80
5134;DHT22;2585;48.696;10.066;2024-03-02T15:12:23;12.90;65.00
5134;DHT22;2585;48.696;10.066;2024-03-02T15:14:50;12.80;67.40
5134;DHT22;2585;48.696;10.066;2024-03-02T15:17:17;12.80;76.30
5134;DHT22;2585;48.696;10.066;2024-03-02T15:19:45;12.80;82.40
5134;DHT22;2585;48.696;10.066;2024-03-02T15:22:12;12.70;83.60
5134;DHT22;2585;48.696;10.066;2024-03-02T15:24:40;12.60;68.40
5134;DHT22;2585;48.696;10.066;2024-03-02T15:27:07;12.50;71.20
5134;DHT22;2585;48.696;10.066;2024-03-02T15:29:35;12.30;86.40
5134;DHT22;2585;48.696;10.066;2024-03-02T15:32:03;12.20;79.10
5134;DHT22;2585;48.696;10.066;2024-03-02T15:34:33;12.00;65.10
5134;DHT22;2585;48.696;10.066;2024-03-02T15:37:00;12.00;79.00
5134;DHT22;2585;48.696;10.066;2024-03-02T15:39:28;12.00;88.10
5134;DHT22;2585;48.696;10.066;2024-03-02T15:41:55;12.00;1.00
5134;DHT22;2585;48.696;10.066;2024-03-02T15:44:21;12.00;1.00
5134;DHT22;2585;48.696;10.066;2024-03-02T15:46:49;11.90;1.00
5134;DHT22;2585;48.696;10.066;2024-03-02T15:49:16;11.90;17.60
5134;DHT22;2585;48.696;10.066;2024-03-02T15:51:46;11.80;66.30
5134;DHT22;2585;48.696;10.066;2024-03-02T15:54:13;11.70;78.60
5134;DHT22;2585;48.696;10.066;2024-03-02T15:56:40;11.60;80.00
5134;DHT22;2585;48.696;10.066;2024-03-02T15:59:07;11.50;70.10
5134;DHT22;2585;48.696;10.066;2024-03-02T16:01:35;11.40;65.40
5134;DHT22;2585;48.696;10.066;2024-03-02T16:04:02;11.40;75.10
5134;DHT22;2585;48.696;10.066;2024-03-02T16:06:29;11.30;90.20
5134;DHT22;2585;48.696;10.066;2024-03-02T16:08:56;11.20;1.00
5134;DHT22;2585;48.696;10.066;2024-03-02T16:11:26;11.10;78.90
5134;DHT22;2585;48.696;10.066;2024-03-02T16:13:53;11.00;1.00
5134;DHT22;2585;48.696;10.066;2024-03-02T16:16:20;10.80;87.50